• Join FlightAware (Why Join?)
  • Login
  • US Flag 
11:11PM EDT


 

Airport Tracker/Info


-or-


 

Live Flight TrackerFlight Track Log ✈ UPS1214 ✈ 10-May-2013 ✈ KSDF - KBWI

Flight Track Log - Related Links

Times and Time Zones

All times are in EDT time to prevent confusion due to time zone crossing. See the UPS1214 flight status page for this flight to view local times or setup timezone preferences in your user account.

Time Position Orientation Groundspeed Altitude Reporting Facility
EDT Latitude Longitude Course Direction KTS MPH feet Rate Location/Type
05:15AM 38.1680 -85.7240 180° South 161 185 1,000  Level FlightAware
05:15AM 38.1510 -85.7160 160° South 169 194 2,200 2,160 Climbing FlightAware
05:15AM 38.1270 -85.7020 155° Southeast 206 237 3,000 2,040 Climbing FlightAware
05:16AM 38.1030 -85.6890 157° South 230 265 4,100 2,460 Climbing FlightAware
05:16AM 38.0750 -85.6600 141° Southeast 279 321 5,300 2,520 Climbing FlightAware
05:17AM 38.0690 -85.6380 109° East 292 336 6,000 3,420 Climbing FlightAware
05:17AM 38.0660 -85.5960 95° East 290 334 7,600 3,360 Climbing FlightAware
05:18AM 38.0610 -85.5430 97° East 299 344 9,100 3,000 Climbing FlightAware
05:18AM 38.0680 -85.4730 83° East 320 368 11,100 2,160 Climbing FlightAware
05:19AM 38.0930 -85.3850 70° East 388 447 12,200 2,580 Climbing FlightAware
05:20AM 38.1180 -85.2970 70° East 404 465 14,800 3,420 Climbing FlightAware
05:20AM 38.1490 -85.1910 70° East 435 501 17,100 3,240 Climbing FlightAware
05:21AM 38.1780 -85.0940 69° East 447 514 19,400 3,120 Climbing FlightAware
05:22AM 38.2060 -84.9970 70° East 461 531 21,300 2,820 Climbing FlightAware
05:22AM 38.2400 -84.8800 70° East 477 549 23,400 2,880 Climbing FlightAware
05:23AM 38.2710 -84.7740 70° East 483 556 25,400 2,520 Climbing FlightAware
05:24AM 38.3020 -84.6650 70° East 498 573 26,800 2,100 Climbing FlightAware
05:25AM 38.3370 -84.5430 70° East 512 589 28,400 2,580 Climbing FlightAware
05:26AM 38.3940 -84.3420 70° East 500 575 31,800 2,460 Climbing FlightAware
05:26AM 38.4240 -84.2340 70° East 502 578 33,000 900 Climbing FlightAware
05:27AM 38.4550 -84.1140 72° East 514 592 33,100 660 Climbing FlightAware
05:28AM 38.4600 -83.9630 88° East 511 588 34,100 660 Climbing FlightAware
05:29AM 38.4620 -83.8610 89° East 511 588 34,100  Level FlightAware
05:29AM 38.4630 -83.7320 89° East 511 588 34,100  Level FlightAware
05:30AM 38.4650 -83.6300 89° East 511 588 34,100  Level FlightAware
05:31AM 38.4660 -83.5270 89° East 511 588 34,100  Level FlightAware
05:31AM 38.4680 -83.4240 89° East 511 588 34,100  Level FlightAware
05:32AM 38.4690 -83.3220 89° East 511 588 34,100  Level FlightAware
05:33AM 38.4710 -83.1930 89° East 511 588 34,100 2,460 Level FlightAware
05:33AM 38.6470 -82.9880 42° Northeast 544 626 37,000 2,640 Climbing FlightAware
05:34AM 38.6850 -82.8670 68° East 545 627 37,000  Level FlightAware
05:35AM 38.7170 -82.7620 69° East 552 635 37,000  Level FlightAware
05:35AM 38.7580 -82.6270 69° East 552 635 37,000  Level FlightAware
05:36AM 38.7950 -82.5030 69° East 551 634 37,000  Level FlightAware
05:37AM 38.8320 -82.3830 68° East 547 629 37,000  Level FlightAware
05:37AM 38.8720 -82.2500 69° East 545 627 37,000  Level FlightAware
05:38AM 38.9060 -82.1310 70° East 540 621 37,000  Level FlightAware
05:39AM 38.9430 -82.0110 68° East 536 617 37,000  Level FlightAware
05:39AM 38.9840 -81.8730 69° East 531 611 37,000  Level FlightAware
05:40AM 39.0170 -81.7600 69° East 527 606 37,000  Level FlightAware
05:41AM 39.0560 -81.6280 69° East 523 602 37,000  Level FlightAware
05:42AM 39.0890 -81.5140 70° East 518 596 37,000  Level FlightAware
05:42AM 39.1260 -81.3880 69° East 515 593 37,000  Level FlightAware
05:43AM 39.1620 -81.2650 69° East 513 590 37,000  Level FlightAware
05:44AM 39.1930 -81.1550 70° East 510 587 37,000  Level FlightAware
05:44AM 39.2300 -81.0260 70° East 510 587 37,000  Level FlightAware
05:45AM 39.2630 -80.9110 70° East 509 586 37,000  Level FlightAware
05:46AM 39.2970 -80.7790 72° East 514 592 37,000  Level FlightAware
05:46AM 39.3130 -80.6590 80° East 520 598 37,000  Level FlightAware
05:47AM 39.3180 -80.5410 87° East 520 598 37,000  Level FlightAware
05:48AM 39.3240 -80.4040 87° East 517 595 37,000  Level FlightAware
05:49AM 39.3280 -80.2830 88° East 514 592 37,000  Level FlightAware
05:49AM 39.3320 -80.1750 87° East 511 588 37,000  Level FlightAware
05:50AM 39.3360 -80.0360 88° East 508 585 37,000 -180 Level FlightAware
05:51AM 39.3400 -79.9140 88° East 502 578 36,800 -780 Descending FlightAware
05:51AM 39.3440 -79.7980 87° East 500 575 36,000 -1,200 Descending FlightAware
05:52AM 39.3480 -79.6610 88° East 500 575 35,100 -1,200 Descending FlightAware
05:53AM 39.3510 -79.5430 88° East 501 577 34,300 -1,380 Descending FlightAware
05:53AM 39.3550 -79.4080 88° East 504 580 33,200 -1,380 Descending FlightAware
05:54AM 39.3580 -79.2960 88° East 504 580 32,400 -1,200 Descending FlightAware
05:55AM 39.3610 -79.1670 88° East 501 577 31,600 -1,320 Descending FlightAware
05:55AM 39.3640 -79.0340 88° East 502 578 30,600 -1,440 Descending FlightAware
05:56AM 39.3670 -78.9140 88° East 502 578 29,600 -1,800 Descending FlightAware
05:57AM 39.3690 -78.7960 89° East 490 564 28,200 -2,220 Descending FlightAware
05:58AM 39.3720 -78.6650 88° East 477 549 26,500 -2,340 Descending FlightAware
05:58AM 39.3740 -78.5520 89° East 465 535 24,900 -2,280 Descending FlightAware
05:59AM 39.3770 -78.4300 88° East 453 521 23,300 -2,220 Descending FlightAware
06:00AM 39.3780 -78.3250 89° East 446 513 21,800 -2,280 Descending FlightAware
06:00AM 39.3800 -78.2040 89° East 435 501 20,100 -2,220 Descending FlightAware
06:01AM 39.3820 -78.1040 88° East 427 491 18,700 -2,220 Descending FlightAware
06:02AM 39.3840 -78.0020 89° East 422 486 17,200 -2,220 Descending FlightAware
06:02AM 39.3850 -77.8880 89° East 412 474 15,600 -1,740 Descending FlightAware
06:03AM 39.3980 -77.7930 80° East 397 457 14,800 -1,080 Descending FlightAware
06:04AM 39.4110 -77.6940 80° East 390 449 14,100 -1,200 Descending FlightAware
06:05AM 39.4220 -77.6000 81° East 389 448 13,100 -1,500 Descending FlightAware
06:05AM 39.4320 -77.5060 82° East 383 441 12,100 -1,500 Descending FlightAware
06:06AM 39.4280 -77.4060 93° East 376 433 11,000 -780 Descending FlightAware
06:07AM 39.4170 -77.3220 100° East 377 434 11,000 -120 Level FlightAware
06:07AM 39.4040 -77.2270 100° East 376 433 10,900 -300 Descending FlightAware
06:08AM 39.3920 -77.1320 99° East 347 399 10,600 -480 Descending FlightAware
06:09AM 39.3770 -77.0780 110° East 324 373 10,300 -660 Descending FlightAware
06:09AM 39.3500 -77.0450 137° Southeast 308 354 10,000 -1,140 Descending FlightAware
06:09AM 39.3180 -77.0080 138° Southeast 305 351 9,300 -1,440 Descending FlightAware
06:10AM 39.2950 -76.9820 139° Southeast 304 350 8,700 -1,380 Descending FlightAware
06:10AM 39.2760 -76.9600 138° Southeast 302 348 8,400 -1,200 Descending FlightAware
06:11AM 39.2450 -76.9250 139° Southeast 298 343 7,800 -1,320 Descending FlightAware
06:11AM 39.2210 -76.8970 138° Southeast 294 338 7,200 -1,680 Descending FlightAware
06:12AM 39.1890 -76.8600 138° Southeast 290 334 6,300 -1,920 Descending FlightAware
06:12AM 39.1750 -76.8440 138° Southeast 289 333 5,800 -1,980 Descending FlightAware
06:12AM 39.1500 -76.8130 136° Southeast 285 328 5,000 -1,980 Descending FlightAware
06:12AM 39.1380 -76.7990 138° Southeast 283 326 4,500 -1,920 Descending FlightAware
06:13AM 39.1060 -76.7620 138° Southeast 277 319 3,600 -1,800 Descending FlightAware
06:13AM 39.1000 -76.7490 121° Southeast 274 315 3,300 -1,440 Descending FlightAware
06:13AM 39.0910 -76.7280 119° Southeast 258 297 3,000 -1,080 Descending FlightAware
06:14AM 39.0800 -76.7000 117° Southeast 238 274 2,600 -960 Descending FlightAware
06:14AM 39.0670 -76.6680 118° Southeast 217 250 2,200 -960 Descending FlightAware
06:15AM 39.0610 -76.6480 111° Southeast 208 239 1,900 -420 Descending FlightAware
06:15AM 39.0550 -76.6210 106° East 208 239 1,900 -540 Level FlightAware
06:15AM 39.0833 -76.6167 106° East 179 206 1,500 -600 Descending Potomac TRACON
06:16AM 39.1333 -76.6333 346° North 139 160 1,100 -600 Descending Potomac TRACON
06:17AM 39.1667 -76.6500 339° North 135 155 400 -720 Descending Potomac TRACON
06:19AM 39.1667 -76.6667 322° Northwest  Level FlightAware Approximate
06:26AM 39.1754 -76.6683 322° Northwest  Level Estimated
06:27AM 39.1754 -76.6683 322° Northwest  Level Estimated
06:28AM 39.1754 -76.6683 322° Northwest  Level Estimated
06:29AM 39.1754 -76.6683 322° Northwest  Level Estimated